River Rouge, Michigan
Current Conditions -  °F | °C
As of 11:00 PM on Tuesday 21 Oct 2014 (Local Time) from CYQG Reporting Station
Overcast Overcast  
Wind Chill: 39°   Ceiling: 1800
Heat Index: 45°   Visibility: 15mi
Dew Point: 37°   Wind: 10mph
Humidity: 76%   Direction: 350°N
Pressure: 30.19"   Gusts: 20mph
Location:  42.27°N, 83.13°W
Report Text: CYQG 220300Z 35009G17KT 15SM OVC018 07/03 A3019 RMK SC8 SLP227
Loading
Personal Weather Stations






























Interactive Weather Map
Tropical Storm Tracking
New forecast layout! Learn more

10-Day Weather Forecast

Advertisements
Track Severe Weather on mobile